Time;durP1;ratioP1;P1;durP2;ratioP2;P2;SDS_P1;SDS_P2;PMS_P1;PMS_P2;Temp;Humidity;BMP_temperature;BMP_pressure;BME280_temperature;BME280_humidity;BME280_pressure;Samples;Min_cycle;Max_cycle;Signal;HPM_P1;HPM_P2
2024/01/06 00:02:17;;;;;;;8.90;8.00;;;;;;;;;;5031681;28;20216;-58
2024/01/06 00:04:43;;;;;;;8.70;7.90;;;;;;;;;;5032112;28;20583;-58
2024/01/06 00:07:09;;;;;;;9.00;8.10;;;;;;;;;;5028182;28;20177;-57
2024/01/06 00:09:35;;;;;;;8.97;8.07;;;;;;;;;;5034623;28;20182;-57
2024/01/06 00:12:02;;;;;;;7.87;7.10;;;;;;;;;;5030824;28;20307;-58
2024/01/06 00:14:28;;;;;;;9.10;8.20;;;;;;;;;;5032509;28;20229;-58
2024/01/06 00:16:54;;;;;;;10.97;8.57;;;;;;;;;;5031735;28;20185;-57
2024/01/06 00:19:20;;;;;;;8.70;7.90;;;;;;;;;;5030524;28;20275;-58
2024/01/06 00:21:46;;;;;;;8.03;7.27;;;;;;;;;;5031452;28;20226;-58
2024/01/06 00:24:12;;;;;;;8.53;7.67;;;;;;;;;;5031507;28;20174;-58
2024/01/06 00:26:38;;;;;;;9.47;8.47;;;;;;;;;;5039256;28;20181;-57
2024/01/06 00:29:04;;;;;;;10.13;8.90;;;;;;;;;;5031017;28;20177;-58
2024/01/06 00:31:30;;;;;;;10.53;8.87;;;;;;;;;;5035708;28;20213;-53
2024/01/06 00:33:56;;;;;;;9.33;8.40;;;;;;;;;;5031723;28;20209;-53
2024/01/06 00:36:22;;;;;;;9.30;8.10;;;;;;;;;;5034316;28;20667;-54
2024/01/06 00:38:48;;;;;;;9.73;8.80;;;;;;;;;;5035491;28;20320;-54
2024/01/06 00:41:14;;;;;;;8.97;8.07;;;;;;;;;;5031510;28;20273;-53
2024/01/06 00:43:40;;;;;;;9.47;8.47;;;;;;;;;;5030992;28;20257;-53
2024/01/06 00:46:07;;;;;;;8.20;7.37;;;;;;;;;;5031561;28;20277;-53
2024/01/06 00:48:33;;;;;;;9.50;8.60;;;;;;;;;;5030487;28;20518;-55
2024/01/06 00:50:59;;;;;;;9.43;7.90;;;;;;;;;;5031314;28;20189;-55
2024/01/06 00:53:25;;;;;;;8.60;7.70;;;;;;;;;;5029550;28;20186;-56
2024/01/06 00:55:51;;;;;;;8.20;7.40;;;;;;;;;;5034035;28;20220;-56
2024/01/06 00:58:17;;;;;;;8.20;7.20;;;;;;;;;;5022406;28;20685;-55
2024/01/06 01:00:43;;;;;;;7.60;6.90;;;;;;;;;;5033890;28;20170;-55
2024/01/06 01:03:09;;;;;;;7.87;7.17;;;;;;;;;;5029888;28;20182;-56
2024/01/06 01:05:35;;;;;;;7.80;6.77;;;;;;;;;;5029586;28;20622;-56
2024/01/06 01:08:01;;;;;;;8.17;7.43;;;;;;;;;;5030601;28;20212;-55
2024/01/06 01:10:27;;;;;;;8.73;7.93;;;;;;;;;;5030904;28;20370;-55
2024/01/06 01:12:53;;;;;;;9.00;8.00;;;;;;;;;;5030117;28;20220;-55
2024/01/06 01:15:19;;;;;;;8.83;8.03;;;;;;;;;;5030374;28;20173;-56
2024/01/06 01:17:45;;;;;;;8.83;8.03;;;;;;;;;;5029116;28;20220;-56
2024/01/06 01:20:11;;;;;;;9.13;8.27;;;;;;;;;;5029616;28;20745;-55
2024/01/06 01:22:37;;;;;;;9.60;8.63;;;;;;;;;;5030622;28;20348;-56
2024/01/06 01:25:07;;;;;;;9.67;8.77;;;;;;;;;;5030572;28;20871;-55
2024/01/06 01:27:33;;;;;;;9.07;8.20;;;;;;;;;;5029788;28;20205;-55
2024/01/06 01:29:59;;;;;;;9.23;8.10;;;;;;;;;;5030291;28;20232;-55
2024/01/06 01:32:25;;;;;;;9.23;8.40;;;;;;;;;;5028922;28;20220;-55
2024/01/06 01:34:51;;;;;;;9.60;8.60;;;;;;;;;;5028061;28;20195;-55
2024/01/06 01:37:17;;;;;;;11.60;10.60;;;;;;;;;;5029475;28;20416;-55
2024/01/06 01:39:43;;;;;;;11.40;10.30;;;;;;;;;;5029252;28;20255;-55
2024/01/06 01:42:09;;;;;;;10.07;9.07;;;;;;;;;;5030105;28;20174;-56
2024/01/06 01:44:35;;;;;;;9.90;9.00;;;;;;;;;;5031725;28;20633;-56
2024/01/06 01:47:03;;;;;;;10.10;9.10;;;;;;;;;;5029773;28;20220;-55
2024/01/06 01:49:29;;;;;;;9.83;8.97;;;;;;;;;;5028908;28;20189;-55
2024/01/06 01:51:55;;;;;;;11.00;9.90;;;;;;;;;;5029561;28;20181;-55
2024/01/06 01:54:21;;;;;;;10.07;9.07;;;;;;;;;;5028844;28;20234;-55
2024/01/06 01:56:47;;;;;;;10.43;9.27;;;;;;;;;;5032535;28;20641;-55
2024/01/06 01:59:14;;;;;;;11.03;9.90;;;;;;;;;;5033738;28;20217;-57
2024/01/06 02:01:40;;;;;;;10.80;9.77;;;;;;;;;;5031861;28;20640;-57
2024/01/06 02:04:06;;;;;;;12.00;10.10;;;;;;;;;;5027921;28;20165;-58
2024/01/06 02:06:32;;;;;;;11.00;9.90;;;;;;;;;;5030541;28;20170;-57
2024/01/06 02:08:59;;;;;;;10.33;9.30;;;;;;;;;;5030714;28;20186;-57
2024/01/06 02:11:25;;;;;;;11.03;9.90;;;;;;;;;;5030257;28;20178;-57
2024/01/06 02:13:51;;;;;;;11.60;10.40;;;;;;;;;;5029122;28;20208;-57
2024/01/06 02:16:17;;;;;;;12.03;10.70;;;;;;;;;;5032580;28;20177;-57
2024/01/06 02:18:43;;;;;;;12.37;10.20;;;;;;;;;;5026503;28;20670;-57
2024/01/06 02:21:10;;;;;;;10.93;9.90;;;;;;;;;;5029178;28;20332;-57
2024/01/06 02:23:36;;;;;;;11.53;10.40;;;;;;;;;;5032736;28;20728;-57
2024/01/06 02:26:03;;;;;;;10.93;9.83;;;;;;;;;;5025521;28;20169;-58
2024/01/06 02:28:29;;;;;;;12.17;10.93;;;;;;;;;;5026797;28;20715;-58
2024/01/06 02:30:55;;;;;;;11.77;10.57;;;;;;;;;;5028764;28;20208;-57
2024/01/06 02:33:23;;;;;;;11.07;9.87;;;;;;;;;;5029326;28;20193;-58
2024/01/06 02:35:49;;;;;;;12.43;11.13;;;;;;;;;;5028542;28;20194;-58
2024/01/06 02:38:15;;;;;;;12.63;10.87;;;;;;;;;;5030585;28;20225;-58
2024/01/06 02:40:42;;;;;;;12.90;11.47;;;;;;;;;;5029431;28;20692;-57
2024/01/06 02:43:09;;;;;;;12.50;10.70;;;;;;;;;;5021817;28;20227;-57
2024/01/06 02:45:35;;;;;;;11.73;10.37;;;;;;;;;;5028821;28;20201;-58
2024/01/06 02:48:01;;;;;;;12.63;11.13;;;;;;;;;;5030116;28;20628;-57
2024/01/06 02:50:27;;;;;;;12.77;11.47;;;;;;;;;;5028090;28;20663;-58
2024/01/06 02:52:53;;;;;;;12.63;11.23;;;;;;;;;;5029342;28;20178;-58
2024/01/06 02:55:19;;;;;;;13.20;11.50;;;;;;;;;;5028705;28;20170;-57
2024/01/06 02:57:45;;;;;;;12.80;11.30;;;;;;;;;;5028052;28;20638;-57
2024/01/06 03:00:12;;;;;;;13.73;12.17;;;;;;;;;;5028531;28;20182;-58
2024/01/06 03:02:41;;;;;;;12.70;11.40;;;;;;;;;;5028082;28;20182;-56
2024/01/06 03:05:07;;;;;;;13.47;11.30;;;;;;;;;;5032125;28;20696;-58
2024/01/06 03:07:34;;;;;;;12.50;11.20;;;;;;;;;;5029222;28;20216;-57
2024/01/06 03:10:00;;;;;;;15.53;11.93;;;;;;;;;;5028461;28;20673;-58
2024/01/06 03:12:26;;;;;;;14.83;12.63;;;;;;;;;;5028733;28;20273;-58
2024/01/06 03:14:52;;;;;;;13.17;11.77;;;;;;;;;;5028140;28;20201;-58
2024/01/06 03:17:18;;;;;;;14.17;11.90;;;;;;;;;;5035422;28;20186;-57
2024/01/06 03:19:44;;;;;;;15.87;12.53;;;;;;;;;;5027462;28;20201;-58
2024/01/06 03:22:10;;;;;;;13.97;11.77;;;;;;;;;;5027930;28;20214;-58
2024/01/06 03:24:36;;;;;;;13.57;12.17;;;;;;;;;;5027368;28;20181;-57
2024/01/06 03:27:03;;;;;;;11.93;10.60;;;;;;;;;;5035142;28;20186;-58
2024/01/06 03:29:29;;;;;;;15.90;12.17;;;;;;;;;;5028646;28;20652;-57
2024/01/06 03:31:55;;;;;;;13.33;11.03;;;;;;;;;;5028193;28;20661;-57
2024/01/06 03:34:21;;;;;;;11.73;10.27;;;;;;;;;;5027417;28;20186;-58
2024/01/06 03:36:47;;;;;;;13.80;11.20;;;;;;;;;;5030215;28;20342;-58
2024/01/06 03:39:13;;;;;;;14.70;10.83;;;;;;;;;;5028269;28;20624;-58
2024/01/06 03:41:39;;;;;;;12.10;9.67;;;;;;;;;;5030038;28;20521;-58
2024/01/06 03:44:05;;;;;;;13.63;10.00;;;;;;;;;;5032742;28;20216;-58
2024/01/06 03:46:31;;;;;;;11.70;9.50;;;;;;;;;;5029305;28;20224;-58
2024/01/06 03:48:57;;;;;;;14.10;10.73;;;;;;;;;;5031125;28;20560;-57
2024/01/06 03:51:24;;;;;;;15.30;9.87;;;;;;;;;;5033080;28;20185;-58
2024/01/06 03:53:50;;;;;;;14.87;10.17;;;;;;;;;;5031964;28;20265;-57
2024/01/06 03:56:16;;;;;;;10.97;8.40;;;;;;;;;;5031328;28;20269;-58
2024/01/06 03:58:42;;;;;;;11.67;9.33;;;;;;;;;;5031877;28;20209;-57
2024/01/06 04:01:08;;;;;;;12.97;9.33;;;;;;;;;;5031270;28;20192;-58
2024/01/06 04:03:34;;;;;;;11.93;8.30;;;;;;;;;;5030765;28;20516;-58
2024/01/06 04:06:00;;;;;;;10.27;8.03;;;;;;;;;;5031700;28;20636;-57
2024/01/06 04:08:26;;;;;;;11.27;8.13;;;;;;;;;;5031479;28;20270;-57
2024/01/06 04:10:52;;;;;;;12.33;8.27;;;;;;;;;;5031862;28;20265;-57
2024/01/06 04:13:18;;;;;;;11.93;8.33;;;;;;;;;;5031370;28;20644;-58
2024/01/06 04:15:44;;;;;;;10.77;8.20;;;;;;;;;;5030855;28;20206;-57
2024/01/06 04:18:10;;;;;;;11.53;8.67;;;;;;;;;;5030703;28;20198;-58
2024/01/06 04:20:36;;;;;;;11.63;9.10;;;;;;;;;;5038442;28;20635;-58
2024/01/06 04:23:02;;;;;;;9.77;7.83;;;;;;;;;;5032058;28;20174;-57
2024/01/06 04:25:28;;;;;;;8.37;7.33;;;;;;;;;;5030287;28;20178;-57
2024/01/06 04:27:54;;;;;;;12.33;8.03;;;;;;;;;;5031164;28;20645;-57
2024/01/06 04:30:20;;;;;;;10.13;8.00;;;;;;;;;;5030164;28;20197;-58
2024/01/06 04:32:48;;;;;;;11.63;8.47;;;;;;;;;;5029985;28;20173;-58
2024/01/06 04:35:14;;;;;;;11.77;7.87;;;;;;;;;;5029571;28;20536;-58
2024/01/06 04:37:40;;;;;;;10.67;7.63;;;;;;;;;;5029253;28;20178;-57
2024/01/06 04:40:07;;;;;;;11.03;8.23;;;;;;;;;;5035646;28;20174;-58
2024/01/06 04:42:33;;;;;;;9.30;7.73;;;;;;;;;;5030842;28;20223;-58
2024/01/06 04:44:59;;;;;;;8.70;6.80;;;;;;;;;;5029981;28;20498;-58
2024/01/06 04:47:27;;;;;;;10.67;7.53;;;;;;;;;;5029752;28;20170;-58
2024/01/06 04:49:53;;;;;;;10.53;8.07;;;;;;;;;;5029844;28;20189;-57
2024/01/06 04:52:19;;;;;;;9.83;7.53;;;;;;;;;;5032852;28;20186;-58
2024/01/06 04:54:45;;;;;;;10.17;7.37;;;;;;;;;;5035265;28;20185;-58
2024/01/06 04:57:11;;;;;;;10.10;8.03;;;;;;;;;;5032040;28;20228;-58
2024/01/06 04:59:37;;;;;;;8.07;6.73;;;;;;;;;;5029103;28;20228;-58
2024/01/06 05:02:04;;;;;;;8.33;7.23;;;;;;;;;;5028628;28;20917;-58
2024/01/06 05:04:32;;;;;;;8.07;6.50;;;;;;;;;;5029980;28;20512;-58
2024/01/06 05:06:58;;;;;;;8.93;7.13;;;;;;;;;;5027820;28;20621;-57
2024/01/06 05:09:24;;;;;;;8.53;6.73;;;;;;;;;;5028935;28;20272;-57
2024/01/06 05:11:50;;;;;;;7.47;6.60;;;;;;;;;;5030137;28;20186;-58
2024/01/06 05:14:16;;;;;;;8.90;6.77;;;;;;;;;;5029356;28;20202;-57
2024/01/06 05:16:42;;;;;;;7.90;6.23;;;;;;;;;;5029233;28;20248;-58
2024/01/06 05:19:08;;;;;;;7.87;6.30;;;;;;;;;;5029614;28;20788;-57
2024/01/06 05:21:34;;;;;;;10.00;6.90;;;;;;;;;;5029538;28;20232;-57
2024/01/06 05:24:00;;;;;;;7.60;6.50;;;;;;;;;;5027606;28;20575;-58
2024/01/06 05:26:27;;;;;;;9.03;7.00;;;;;;;;;;5029960;28;20213;-58
2024/01/06 05:28:53;;;;;;;8.13;6.77;;;;;;;;;;5029456;28;20182;-57
2024/01/06 05:31:19;;;;;;;8.90;6.63;;;;;;;;;;5029774;28;20236;-55
2024/01/06 05:33:45;;;;;;;9.80;7.80;;;;;;;;;;5027944;28;20182;-55
2024/01/06 05:36:11;;;;;;;8.33;6.47;;;;;;;;;;5028232;28;20185;-56
2024/01/06 05:38:37;;;;;;;11.17;7.93;;;;;;;;;;5030066;28;20676;-54
2024/01/06 05:41:03;;;;;;;9.90;7.43;;;;;;;;;;5029896;28;20256;-55
2024/01/06 05:43:29;;;;;;;10.13;7.63;;;;;;;;;;5034536;28;20181;-56
2024/01/06 05:45:55;;;;;;;7.93;7.00;;;;;;;;;;5029892;28;20189;-56
2024/01/06 05:48:21;;;;;;;9.93;7.53;;;;;;;;;;5029860;28;20546;-55
2024/01/06 05:50:47;;;;;;;10.30;8.47;;;;;;;;;;5028764;28;20166;-55
2024/01/06 05:53:14;;;;;;;10.33;7.67;;;;;;;;;;5029024;28;20189;-55
2024/01/06 05:55:40;;;;;;;11.90;8.87;;;;;;;;;;5028391;28;20201;-56
2024/01/06 05:58:06;;;;;;;11.43;8.40;;;;;;;;;;5029295;28;20202;-55
2024/01/06 06:00:32;;;;;;;9.03;7.77;;;;;;;;;;5029209;28;20170;-55
2024/01/06 06:02:58;;;;;;;11.27;8.37;;;;;;;;;;5029223;28;20513;-55
2024/01/06 06:05:25;;;;;;;11.27;8.67;;;;;;;;;;5026414;28;20546;-55
2024/01/06 06:07:51;;;;;;;12.60;8.27;;;;;;;;;;5028656;28;20178;-55
2024/01/06 06:10:18;;;;;;;10.70;8.73;;;;;;;;;;5029589;28;20231;-55
2024/01/06 06:12:45;;;;;;;10.23;8.10;;;;;;;;;;5029613;28;20618;-54
2024/01/06 06:15:11;;;;;;;10.17;8.23;;;;;;;;;;5028909;28;20543;-55
2024/01/06 06:17:37;;;;;;;10.90;8.20;;;;;;;;;;5029159;28;20614;-55
2024/01/06 06:20:03;;;;;;;10.20;8.63;;;;;;;;;;5031048;28;20198;-56
2024/01/06 06:22:32;;;;;;;10.27;8.40;;;;;;;;;;5029074;28;20174;-57
2024/01/06 06:24:59;;;;;;;11.07;8.90;;;;;;;;;;5029580;28;20633;-56
2024/01/06 06:27:26;;;;;;;12.63;8.33;;;;;;;;;;5029704;28;20239;-57
2024/01/06 06:29:52;;;;;;;10.13;8.97;;;;;;;;;;5028312;28;20170;-57
2024/01/06 06:32:18;;;;;;;11.23;8.73;;;;;;;;;;5029121;28;20393;-57
2024/01/06 06:34:44;;;;;;;10.67;8.17;;;;;;;;;;5027223;28;20244;-56
2024/01/06 06:37:10;;;;;;;11.13;8.97;;;;;;;;;;5029041;28;20177;-57
2024/01/06 06:39:36;;;;;;;11.50;8.63;;;;;;;;;;5032162;28;20210;-57
2024/01/06 06:42:02;;;;;;;10.87;8.20;;;;;;;;;;5029008;28;20680;-55
2024/01/06 06:44:29;;;;;;;10.47;8.63;;;;;;;;;;5027663;28;20178;-55
2024/01/06 06:46:55;;;;;;;10.73;7.83;;;;;;;;;;5029121;28;20648;-56
2024/01/06 06:49:21;;;;;;;11.43;8.93;;;;;;;;;;5027186;28;20181;-56
2024/01/06 06:51:48;;;;;;;12.47;9.40;;;;;;;;;;5028919;28;20178;-54
2024/01/06 06:54:15;;;;;;;11.60;8.70;;;;;;;;;;5028447;28;20185;-55
2024/01/06 06:56:41;;;;;;;11.30;9.33;;;;;;;;;;5029885;28;20185;-55
2024/01/06 06:59:07;;;;;;;10.60;8.43;;;;;;;;;;5028138;28;20206;-54
2024/01/06 07:01:34;;;;;;;10.80;8.17;;;;;;;;;;5030489;28;20189;-56
2024/01/06 07:04:00;;;;;;;12.70;9.00;;;;;;;;;;5027811;28;20162;-55
2024/01/06 07:06:26;;;;;;;11.00;8.63;;;;;;;;;;5029113;28;20663;-55
2024/01/06 07:08:52;;;;;;;11.53;9.10;;;;;;;;;;5033407;28;20181;-55
2024/01/06 07:11:19;;;;;;;10.70;8.17;;;;;;;;;;5029227;28;20170;-55
2024/01/06 07:13:45;;;;;;;10.93;8.10;;;;;;;;;;5028700;28;20209;-55
2024/01/06 07:16:11;;;;;;;11.37;8.47;;;;;;;;;;5028605;28;20178;-55
2024/01/06 07:18:37;;;;;;;13.33;9.20;;;;;;;;;;5031822;28;20205;-54
2024/01/06 07:21:06;;;;;;;13.00;8.60;;;;;;;;;;5031945;28;20270;-55
2024/01/06 07:23:32;;;;;;;13.17;8.40;;;;;;;;;;5035372;28;20258;-54
2024/01/06 07:25:59;;;;;;;14.67;10.60;;;;;;;;;;5036335;28;20538;-55
2024/01/06 07:28:25;;;;;;;12.30;8.80;;;;;;;;;;5033486;28;20193;-54
2024/01/06 07:30:51;;;;;;;13.97;9.53;;;;;;;;;;5038719;28;20680;-55
2024/01/06 07:33:17;;;;;;;13.63;9.83;;;;;;;;;;5031224;28;20534;-54
2024/01/06 07:35:43;;;;;;;13.50;9.13;;;;;;;;;;5031855;28;20178;-54
2024/01/06 07:38:12;;;;;;;15.37;9.20;;;;;;;;;;5031128;28;20291;-55
2024/01/06 07:40:38;;;;;;;11.70;8.77;;;;;;;;;;5031874;28;20629;-55
2024/01/06 07:43:04;;;;;;;17.10;10.40;;;;;;;;;;5030934;28;20170;-57
2024/01/06 07:45:31;;;;;;;11.83;8.57;;;;;;;;;;5033636;28;21586;-57
2024/01/06 07:47:57;;;;;;;10.27;7.90;;;;;;;;;;5036036;28;20547;-57
2024/01/06 07:50:23;;;;;;;12.43;8.60;;;;;;;;;;5034645;28;20591;-57
2024/01/06 07:52:49;;;;;;;13.43;9.43;;;;;;;;;;5032990;28;20579;-58
2024/01/06 07:55:15;;;;;;;12.53;9.13;;;;;;;;;;5030688;28;20638;-58
2024/01/06 07:57:42;;;;;;;13.00;9.00;;;;;;;;;;5030389;28;20273;-57
2024/01/06 08:00:08;;;;;;;11.77;8.77;;;;;;;;;;5031521;28;20217;-57
2024/01/06 08:02:34;;;;;;;10.27;8.63;;;;;;;;;;5029484;28;20185;-57
2024/01/06 08:05:00;;;;;;;12.93;9.10;;;;;;;;;;5027239;28;20174;-58
2024/01/06 08:07:26;;;;;;;12.57;9.00;;;;;;;;;;5034802;28;20185;-57
2024/01/06 08:09:52;;;;;;;13.33;9.57;;;;;;;;;;5023139;28;20585;-56
2024/01/06 08:12:18;;;;;;;14.00;9.43;;;;;;;;;;5031135;28;20178;-57
2024/01/06 08:14:44;;;;;;;11.93;8.93;;;;;;;;;;5026378;28;20206;-58
2024/01/06 08:17:11;;;;;;;15.33;9.10;;;;;;;;;;5031886;28;20178;-58
2024/01/06 08:19:37;;;;;;;11.93;8.63;;;;;;;;;;5028141;28;20224;-57
2024/01/06 08:22:03;;;;;;;12.37;8.67;;;;;;;;;;5030029;28;20606;-57
2024/01/06 08:24:29;;;;;;;13.20;9.63;;;;;;;;;;5030681;28;20640;-57
2024/01/06 08:26:55;;;;;;;13.37;9.33;;;;;;;;;;5033395;28;20595;-58
2024/01/06 08:29:21;;;;;;;11.30;8.13;;;;;;;;;;5031043;28;20185;-57
2024/01/06 08:31:47;;;;;;;14.47;10.30;;;;;;;;;;5027772;28;20696;-57
2024/01/06 08:34:14;;;;;;;13.13;9.20;;;;;;;;;;5029966;28;20174;-57
2024/01/06 08:36:41;;;;;;;12.20;9.23;;;;;;;;;;5029851;28;20541;-57
2024/01/06 08:39:08;;;;;;;12.83;10.20;;;;;;;;;;5028438;28;20209;-57
2024/01/06 08:41:34;;;;;;;13.20;8.87;;;;;;;;;;5029351;28;20743;-57
2024/01/06 08:44:00;;;;;;;15.13;10.03;;;;;;;;;;5025400;28;20723;-57
2024/01/06 08:46:26;;;;;;;13.47;10.10;;;;;;;;;;5026737;28;20189;-58
2024/01/06 08:48:52;;;;;;;16.10;11.00;;;;;;;;;;5027923;28;20189;-58
2024/01/06 08:51:20;;;;;;;15.30;10.23;;;;;;;;;;5029913;28;20182;-53
2024/01/06 08:53:46;;;;;;;12.70;9.27;;;;;;;;;;5024864;28;20525;-53
2024/01/06 08:56:12;;;;;;;13.30;10.10;;;;;;;;;;5029669;28;20182;-53
2024/01/06 08:58:38;;;;;;;13.60;9.30;;;;;;;;;;5029779;28;20201;-53
2024/01/06 09:01:04;;;;;;;18.20;11.90;;;;;;;;;;5029787;28;20174;-53
2024/01/06 09:03:30;;;;;;;14.13;10.60;;;;;;;;;;5030584;28;20185;-52
2024/01/06 09:05:57;;;;;;;16.37;11.47;;;;;;;;;;5035111;28;20538;-53
2024/01/06 09:08:24;;;;;;;17.00;11.07;;;;;;;;;;5031077;28;20542;-53
2024/01/06 09:10:56;;;;;;;16.03;11.80;;;;;;;;;;5031033;28;20170;-54
2024/01/06 09:13:23;;;;;;;15.23;11.70;;;;;;;;;;5030839;28;20573;-55
2024/01/06 09:15:51;;;;;;;14.93;10.40;;;;;;;;;;5030525;28;20332;-53
2024/01/06 09:18:17;;;;;;;17.17;11.43;;;;;;;;;;5025027;28;20216;-54
2024/01/06 09:20:43;;;;;;;15.70;11.50;;;;;;;;;;5037459;28;20290;-53
2024/01/06 09:23:10;;;;;;;18.53;12.50;;;;;;;;;;5033177;28;20228;-52
2024/01/06 09:25:36;;;;;;;18.47;13.37;;;;;;;;;;5032315;28;20170;-52
2024/01/06 09:28:02;;;;;;;16.43;12.60;;;;;;;;;;5031944;28;20663;-54
2024/01/06 09:30:31;;;;;;;19.33;13.10;;;;;;;;;;5026877;28;20191;-54
2024/01/06 09:32:57;;;;;;;18.50;14.00;;;;;;;;;;5025544;28;20170;-53
2024/01/06 09:35:23;;;;;;;21.27;14.03;;;;;;;;;;5036372;28;20173;-53
2024/01/06 09:37:50;;;;;;;20.93;13.53;;;;;;;;;;5036619;28;20243;-53
2024/01/06 09:40:21;;;;;;;20.13;14.07;;;;;;;;;;5033296;28;20210;-54
2024/01/06 09:42:47;;;;;;;19.17;13.07;;;;;;;;;;5028426;28;20181;-54
2024/01/06 09:45:13;;;;;;;17.93;14.27;;;;;;;;;;5030097;28;20170;-53
2024/01/06 09:47:41;;;;;;;19.37;13.53;;;;;;;;;;5029297;28;20588;-54
2024/01/06 09:50:09;;;;;;;17.07;11.97;;;;;;;;;;5029973;28;20736;-53
2024/01/06 09:52:38;;;;;;;19.63;13.07;;;;;;;;;;5029303;28;20170;-54
2024/01/06 09:55:09;;;;;;;18.10;12.27;;;;;;;;;;5029837;28;20280;-52
2024/01/06 09:57:35;;;;;;;20.37;13.50;;;;;;;;;;5030040;28;20177;-54
2024/01/06 10:00:02;;;;;;;20.03;13.40;;;;;;;;;;5028826;28;20198;-53
2024/01/06 10:02:28;;;;;;;19.40;13.33;;;;;;;;;;5029949;28;20554;-53
2024/01/06 10:04:54;;;;;;;16.47;11.93;;;;;;;;;;5030867;28;20177;-54
2024/01/06 10:07:20;;;;;;;17.20;12.03;;;;;;;;;;5030993;28;20165;-54
2024/01/06 10:09:46;;;;;;;17.07;11.00;;;;;;;;;;5029698;28;20644;-54
2024/01/06 10:12:12;;;;;;;17.83;11.27;;;;;;;;;;5036135;28;20166;-53
2024/01/06 10:14:39;;;;;;;17.40;11.70;;;;;;;;;;5027939;28;20204;-53
2024/01/06 10:17:08;;;;;;;15.50;10.10;;;;;;;;;;5031762;28;20185;-54
2024/01/06 10:19:36;;;;;;;14.53;11.30;;;;;;;;;;5027890;28;20372;-53
2024/01/06 10:22:02;;;;;;;17.03;11.53;;;;;;;;;;5028939;28;20221;-53
2024/01/06 10:24:29;;;;;;;14.27;10.17;;;;;;;;;;5027531;28;20240;-53
2024/01/06 10:26:55;;;;;;;15.03;10.63;;;;;;;;;;5027667;28;20205;-55
2024/01/06 10:29:21;;;;;;;16.93;10.67;;;;;;;;;;5030651;28;20235;-53
2024/01/06 10:31:49;;;;;;;13.57;10.00;;;;;;;;;;5028703;28;20194;-55
2024/01/06 10:34:15;;;;;;;15.27;10.33;;;;;;;;;;5029839;28;20841;-53
2024/01/06 10:36:41;;;;;;;15.90;9.37;;;;;;;;;;5028908;28;20645;-53
2024/01/06 10:39:07;;;;;;;14.00;9.73;;;;;;;;;;5027626;28;20692;-53
2024/01/06 10:41:34;;;;;;;10.93;8.03;;;;;;;;;;5034670;28;20169;-55
2024/01/06 10:44:01;;;;;;;8.27;6.77;;;;;;;;;;5027514;28;20173;-54
2024/01/06 10:46:27;;;;;;;8.40;6.30;;;;;;;;;;5029586;28;20532;-52
2024/01/06 10:48:54;;;;;;;9.63;7.77;;;;;;;;;;5030158;28;20173;-54
2024/01/06 10:51:22;;;;;;;9.40;7.30;;;;;;;;;;5030152;28;20188;-52
2024/01/06 10:53:49;;;;;;;8.90;7.33;;;;;;;;;;5027934;28;20194;-53
2024/01/06 10:56:16;;;;;;;11.30;7.50;;;;;;;;;;5032242;28;20185;-53
2024/01/06 10:58:51;;;;;;;9.23;7.17;;;;;;;;;;5032415;28;20216;-54
2024/01/06 11:01:21;;;;;;;10.80;6.73;;;;;;;;;;5032620;28;20177;-53
2024/01/06 11:03:49;;;;;;;9.47;7.37;;;;;;;;;;5032223;28;20193;-53
2024/01/06 11:06:17;;;;;;;10.90;7.40;;;;;;;;;;5041352;28;20177;-55
2024/01/06 11:09:02;;;;;;;9.67;7.30;;;;;;;;;;5031535;28;20185;-54
2024/01/06 11:11:29;;;;;;;11.30;7.70;;;;;;;;;;5028991;28;20186;-55
2024/01/06 11:14:15;;;;;;;8.90;7.57;;;;;;;;;;5030838;28;20711;-55
2024/01/06 11:16:41;;;;;;;11.67;8.13;;;;;;;;;;5030187;28;20174;-54
2024/01/06 11:19:25;;;;;;;11.60;7.97;;;;;;;;;;5027780;28;20198;-55
2024/01/06 11:21:51;;;;;;;11.70;8.17;;;;;;;;;;5027370;28;20271;-55
2024/01/06 11:24:20;;;;;;;10.43;7.93;;;;;;;;;;5026350;28;20190;-54
2024/01/06 11:26:50;;;;;;;20.00;13.57;;;;;;;;;;5030099;28;20689;-55
2024/01/06 11:29:16;;;;;;;19.83;12.83;;;;;;;;;;5023450;28;20194;-55
2024/01/06 11:31:43;;;;;;;21.77;12.50;;;;;;;;;;5025278;28;20183;-55
2024/01/06 11:34:21;;;;;;;18.10;11.93;;;;;;;;;;5014399;28;20713;-55
2024/01/06 11:36:48;;;;;;;21.13;12.87;;;;;;;;;;5020688;28;20179;-54
2024/01/06 11:39:33;;;;;;;18.97;12.67;;;;;;;;;;5021662;28;20207;-54
2024/01/06 11:41:59;;;;;;;18.37;12.60;;;;;;;;;;5027818;28;20315;-55
2024/01/06 11:44:28;;;;;;;21.60;14.03;;;;;;;;;;5014755;28;20219;-54
2024/01/06 11:46:57;;;;;;;21.70;12.97;;;;;;;;;;5025619;28;20174;-53
2024/01/06 11:49:28;;;;;;;21.60;13.57;;;;;;;;;;5026129;28;20198;-54
2024/01/06 11:51:54;;;;;;;19.90;13.53;;;;;;;;;;5031551;28;20186;-54
2024/01/06 11:54:21;;;;;;;21.53;12.97;;;;;;;;;;5023403;28;20190;-54
2024/01/06 11:56:47;;;;;;;20.97;13.43;;;;;;;;;;5026181;28;20201;-54
2024/01/06 11:59:13;;;;;;;21.67;13.60;;;;;;;;;;5029606;28;20248;-54
2024/01/06 12:01:42;;;;;;;20.47;12.57;;;;;;;;;;5031986;28;20182;-55
2024/01/06 12:04:08;;;;;;;16.77;11.33;;;;;;;;;;5025177;28;20193;-56
2024/01/06 12:09:37;;;;;;;21.13;12.93;;;;;;;;;;5026278;28;20192;-55
2024/01/06 12:12:05;;;;;;;19.43;12.10;;;;;;;;;;5030340;28;20671;-54
2024/01/06 12:14:31;;;;;;;16.70;11.83;;;;;;;;;;5030387;28;20717;-56
2024/01/06 12:17:02;;;;;;;16.90;11.53;;;;;;;;;;5035331;28;20186;-56
2024/01/06 12:19:29;;;;;;;17.63;11.73;;;;;;;;;;5025481;28;20206;-54
2024/01/06 12:21:55;;;;;;;17.63;12.00;;;;;;;;;;5040734;28;20225;-57
2024/01/06 12:24:21;;;;;;;19.87;12.93;;;;;;;;;;5025942;28;20213;-57
2024/01/06 12:26:47;;;;;;;14.93;10.70;;;;;;;;;;5030876;28;20308;-57
2024/01/06 12:29:13;;;;;;;16.07;11.63;;;;;;;;;;5031627;28;20182;-57
2024/01/06 12:31:40;;;;;;;16.20;10.93;;;;;;;;;;5027222;28;20188;-56
2024/01/06 12:34:07;;;;;;;15.60;11.50;;;;;;;;;;5025772;28;20907;-57
2024/01/06 12:36:34;;;;;;;18.23;11.40;;;;;;;;;;5032168;28;20648;-56
2024/01/06 12:39:01;;;;;;;13.97;10.73;;;;;;;;;;5032213;28;20661;-56
2024/01/06 12:41:28;;;;;;;16.63;10.73;;;;;;;;;;5027930;28;20185;-56
2024/01/06 12:43:54;;;;;;;14.90;10.73;;;;;;;;;;5029706;28;20173;-56
2024/01/06 12:46:20;;;;;;;15.30;9.90;;;;;;;;;;5024617;28;20657;-56
2024/01/06 12:48:46;;;;;;;16.20;10.23;;;;;;;;;;5026218;28;20727;-56
2024/01/06 12:51:12;;;;;;;18.10;10.67;;;;;;;;;;5029541;28;20232;-56
2024/01/06 12:53:38;;;;;;;14.83;9.20;;;;;;;;;;5029358;28;20181;-56
2024/01/06 12:56:05;;;;;;;12.53;8.83;;;;;;;;;;5025576;28;20839;-56
2024/01/06 12:58:31;;;;;;;11.77;7.60;;;;;;;;;;5027763;28;20205;-56
2024/01/06 13:00:57;;;;;;;11.73;8.47;;;;;;;;;;5020539;28;20182;-56
2024/01/06 13:03:23;;;;;;;11.70;9.27;;;;;;;;;;5025273;28;20197;-56
2024/01/06 13:05:49;;;;;;;10.67;7.43;;;;;;;;;;5029872;28;20178;-56
2024/01/06 13:08:15;;;;;;;11.43;7.53;;;;;;;;;;5031590;28;20602;-56
2024/01/06 13:10:41;;;;;;;13.57;9.33;;;;;;;;;;5023258;28;20178;-56
2024/01/06 13:13:08;;;;;;;16.13;11.33;;;;;;;;;;5027548;28;20216;-56
2024/01/06 13:15:34;;;;;;;18.67;12.63;;;;;;;;;;5030107;28;20256;-56
2024/01/06 13:18:01;;;;;;;17.40;11.47;;;;;;;;;;5026697;28;20178;-56
2024/01/06 13:20:27;;;;;;;18.20;12.37;;;;;;;;;;5029032;28;20220;-56
2024/01/06 13:22:53;;;;;;;16.50;12.70;;;;;;;;;;5029405;28;20188;-56
2024/01/06 13:25:19;;;;;;;17.87;12.20;;;;;;;;;;5027650;28;20256;-56
2024/01/06 13:27:46;;;;;;;18.80;11.80;;;;;;;;;;5030188;28;20204;-56
2024/01/06 13:30:12;;;;;;;18.73;12.27;;;;;;;;;;5028025;28;20265;-56
2024/01/06 13:32:38;;;;;;;16.37;11.93;;;;;;;;;;5028172;28;20192;-56
2024/01/06 13:35:05;;;;;;;14.70;11.33;;;;;;;;;;5032127;28;20181;-57
2024/01/06 13:37:34;;;;;;;15.20;11.33;;;;;;;;;;5028198;28;20251;-57
2024/01/06 13:40:00;;;;;;;15.83;12.10;;;;;;;;;;5026807;28;20201;-57
2024/01/06 13:42:26;;;;;;;15.77;11.80;;;;;;;;;;5026911;28;20953;-57
2024/01/06 13:44:53;;;;;;;16.50;12.07;;;;;;;;;;5025072;28;20364;-56
2024/01/06 13:47:19;;;;;;;19.10;11.77;;;;;;;;;;5028792;28;20181;-57
2024/01/06 13:49:45;;;;;;;18.30;11.47;;;;;;;;;;5021669;28;20198;-57
2024/01/06 13:52:11;;;;;;;17.40;11.37;;;;;;;;;;5027144;28;20726;-57
2024/01/06 13:54:37;;;;;;;15.83;11.57;;;;;;;;;;5026300;28;20174;-57
2024/01/06 13:57:03;;;;;;;15.77;11.30;;;;;;;;;;5027287;28;20225;-57
2024/01/06 13:59:29;;;;;;;17.80;11.83;;;;;;;;;;5025893;28;21926;-57
2024/01/06 14:01:55;;;;;;;16.43;11.17;;;;;;;;;;5025617;28;20218;-57
2024/01/06 14:04:23;;;;;;;16.17;12.13;;;;;;;;;;5024095;28;20232;-57
2024/01/06 14:06:55;;;;;;;15.70;10.40;;;;;;;;;;5027263;28;20182;-57
2024/01/06 14:09:21;;;;;;;16.57;11.73;;;;;;;;;;5028126;28;20564;-58
2024/01/06 14:11:47;;;;;;;21.17;12.23;;;;;;;;;;5029274;28;20542;-57
2024/01/06 14:14:13;;;;;;;22.83;14.63;;;;;;;;;;5027475;28;20205;-57
2024/01/06 14:16:40;;;;;;;14.17;10.60;;;;;;;;;;5027056;28;20581;-57
2024/01/06 14:19:06;;;;;;;13.43;10.27;;;;;;;;;;5027786;28;20205;-57
2024/01/06 14:21:32;;;;;;;16.83;10.70;;;;;;;;;;5029534;28;20589;-57
2024/01/06 14:23:59;;;;;;;19.73;13.53;;;;;;;;;;5027023;28;20415;-57
2024/01/06 14:26:25;;;;;;;18.30;11.97;;;;;;;;;;5028390;28;20425;-57